Time;durP1;ratioP1;P1;durP2;ratioP2;P2;SDS_P1;SDS_P2;PMS_P1;PMS_P2;Temp;Humidity;BMP_temperature;BMP_pressure;BME280_temperature;BME280_humidity;BME280_pressure;Samples;Min_cycle;Max_cycle;Signal;HPM_P1;HPM_P2
2023/12/28 00:00:31;;;;;;;;;;;;;;;;;;5048438;28;5002;-66
2023/12/28 00:02:56;;;;;;;;;;;;;;;;;;5049723;28;4997;-67
2023/12/28 00:05:22;;;;;;;;;;;;;;;;;;5049007;28;5067;-67
2023/12/28 00:07:47;;;;;;;;;;;;;;;;;;5049409;28;5095;-66
2023/12/28 00:10:12;;;;;;;;;;;;;;;;;;5049714;28;1269;-66
2023/12/28 00:12:38;;;;;;;;;;;;;;;;;;5049588;28;4989;-67
2023/12/28 00:15:03;;;;;;;;;;;;;;;;;;5043654;28;5081;-66
2023/12/28 00:17:28;;;;;;;;;;;;;;;;;;5043892;28;5020;-66
2023/12/28 00:19:54;;;;;;;;;;;;;;;;;;5043903;28;5024;-67
2023/12/28 00:22:19;;;;;;;;;;;;;;;;;;5049519;28;1190;-66
2023/12/28 00:24:45;;;;;;;;;;;;;;;;;;5048709;28;4636;-65
2023/12/28 00:27:10;;;;;;;;;;;;;;;;;;5038818;28;4510;-65
2023/12/28 00:29:38;;;;;;;;;;;;;;;;;;5044688;28;5083;-67
2023/12/28 00:32:05;;;;;;;;;;;;;;;;;;5048838;28;4902;-66
2023/12/28 00:34:30;;;;;;;;;;;;;;;;;;5047697;28;5611;-67
2023/12/28 00:36:55;;;;;;;;;;;;;;;;;;5049732;28;1436;-66
2023/12/28 00:39:21;;;;;;;;;;;;;;;;;;5048407;28;5076;-66
2023/12/28 00:41:46;;;;;;;;;;;;;;;;;;5048452;28;4465;-66
2023/12/28 00:44:11;;;;;;;;;;;;;;;;;;5047284;28;5066;-66
2023/12/28 00:46:36;;;;;;;;;;;;;;;;;;5045230;28;5154;-66
2023/12/28 00:49:02;;;;;;;;;;;;;;;;;;5049314;28;1101;-66
2023/12/28 00:51:27;;;;;;;;;;;;;;;;;;5046241;28;5188;-66
2023/12/28 00:53:52;;;;;;;;;;;;;;;;;;5048421;28;5258;-66
2023/12/28 00:56:20;;;;;;;;;;;;;;;;;;5047845;28;4489;-66
2023/12/28 00:58:45;;;;;;;;;;;;;;;;;;5042518;28;4994;-66
2023/12/28 01:01:11;;;;;;;;;;;;;;;;;;5046835;28;3434;-66
2023/12/28 01:03:36;;;;;;;;;;;;;;;;;;5041719;28;5049;-66
2023/12/28 01:06:01;;;;;;;;;;;;;;;;;;5044722;28;5171;-67
2023/12/28 01:08:27;;;;;;;;;;;;;;;;;;5047175;28;5091;-66
2023/12/28 01:10:52;;;;;;;;;;;;;;;;;;5043666;28;5156;-66
2023/12/28 01:13:17;;;;;;;;;;;;;;;;;;5048682;28;1991;-66
2023/12/28 01:15:43;;;;;;;;;;;;;;;;;;5046098;28;4971;-66
2023/12/28 01:18:08;;;;;;;;;;;;;;;;;;5043618;28;5087;-66
2023/12/28 01:20:34;;;;;;;;;;;;;;;;;;5048145;28;5094;-66
2023/12/28 01:23:00;;;;;;;;;;;;;;;;;;5047986;28;5150;-66
2023/12/28 01:25:25;;;;;;;;;;;;;;;;;;5044889;28;3349;-66
2023/12/28 01:27:50;;;;;;;;;;;;;;;;;;5041483;28;4494;-66
2023/12/28 01:30:15;;;;;;;;;;;;;;;;;;5046952;28;5046;-66
2023/12/28 01:32:41;;;;;;;;;;;;;;;;;;5046515;28;4866;-65
2023/12/28 01:35:06;;;;;;;;;;;;;;;;;;5047077;28;5041;-66
2023/12/28 01:37:33;;;;;;;;;;;;;;;;;;5047951;28;4769;-66
2023/12/28 01:39:58;;;;;;;;;;;;;;;;;;5043413;28;3280;-65
2023/12/28 01:42:24;;;;;;;;;;;;;;;;;;5047223;28;4687;-66
2023/12/28 01:44:49;;;;;;;;;;;;;;;;;;5046206;28;5116;-66
2023/12/28 01:47:14;;;;;;;;;;;;;;;;;;5044661;28;5119;-66
2023/12/28 01:49:40;;;;;;;;;;;;;;;;;;5047051;28;4563;-66
2023/12/28 01:52:05;;;;;;;;;;;;;;;;;;5047680;28;1185;-66
2023/12/28 01:54:30;;;;;;;;;;;;;;;;;;5038465;28;5052;-66
2023/12/28 01:56:56;;;;;;;;;;;;;;;;;;5041703;28;4833;-66
2023/12/28 01:59:21;;;;;;;;;;;;;;;;;;5050464;28;4742;-66
2023/12/28 02:01:46;;;;;;;;;;;;;;;;;;5041364;28;5229;-66
2023/12/28 02:04:12;;;;;;;;;;;;;;;;;;5046790;28;1494;-66
2023/12/28 02:06:37;;;;;;;;;;;;;;;;;;5042889;28;5092;-66
2023/12/28 02:09:02;;;;;;;;;;;;;;;;;;5043242;28;5110;-67
2023/12/28 02:11:27;;;;;;;;;;;;;;;;;;5044867;28;4477;-67
2023/12/28 02:13:53;;;;;;;;;;;;;;;;;;5046166;28;4554;-66
2023/12/28 02:16:25;;;;;;;;;;;;;;;;;;5043283;28;3522;-67
2023/12/28 02:18:51;;;;;;;;;;;;;;;;;;5040583;28;4460;-67
2023/12/28 02:21:16;;;;;;;;;;;;;;;;;;5041911;28;5052;-67
2023/12/28 02:23:48;;;;;;;;;;;;;;;;;;5044193;28;4711;-67
2023/12/28 02:26:14;;;;;;;;;;;;;;;;;;5041307;28;5053;-66
2023/12/28 02:28:39;;;;;;;;;;;;;;;;;;5046480;28;4549;-67
2023/12/28 02:31:05;;;;;;;;;;;;;;;;;;5044650;28;3394;-67
2023/12/28 02:33:35;;;;;;;;;;;;;;;;;;5052824;28;5036;-67
2023/12/28 02:36:10;;;;;;;;;;;;;;;;;;5037445;28;5331;-67
2023/12/28 02:38:36;;;;;;;;;;;;;;;;;;5045652;28;4509;-67
2023/12/28 02:41:01;;;;;;;;;;;;;;;;;;5042440;28;4487;-67
2023/12/28 02:43:27;;;;;;;;;;;;;;;;;;5039449;28;5931;-66
2023/12/28 02:45:52;;;;;;;;;;;;;;;;;;5043298;28;3486;-66
2023/12/28 02:48:17;;;;;;;;;;;;;;;;;;5046323;28;5054;-67
2023/12/28 02:50:43;;;;;;;;;;;;;;;;;;5044933;28;5011;-66
2023/12/28 02:53:08;;;;;;;;;;;;;;;;;;5046256;28;5017;-67
2023/12/28 02:55:34;;;;;;;;;;;;;;;;;;5046664;28;5076;-67
2023/12/28 02:57:59;;;;;;;;;;;;;;;;;;5045801;28;3418;-66
2023/12/28 03:00:24;;;;;;;;;;;;;;;;;;5045210;28;6847;-66
2023/12/28 03:02:49;;;;;;;;;;;;;;;;;;5044996;28;5091;-67
2023/12/28 03:05:15;;;;;;;;;;;;;;;;;;5038803;28;4528;-67
2023/12/28 03:07:40;;;;;;;;;;;;;;;;;;5046381;28;5067;-67
2023/12/28 03:10:06;;;;;;;;;;;;;;;;;;5046602;28;1152;-66
2023/12/28 03:12:31;;;;;;;;;;;;;;;;;;5045716;28;4477;-67
2023/12/28 03:14:57;;;;;;;;;;;;;;;;;;5043769;28;5205;-67
2023/12/28 03:17:22;;;;;;;;;;;;;;;;;;5043548;28;4984;-67
2023/12/28 03:19:47;;;;;;;;;;;;;;;;;;5044271;28;4490;-67
2023/12/28 03:22:12;;;;;;;;;;;;;;;;;;5046938;28;1108;-66
2023/12/28 03:24:38;;;;;;;;;;;;;;;;;;5048765;28;5103;-66
2023/12/28 03:27:04;;;;;;;;;;;;;;;;;;5048140;28;4474;-66
2023/12/28 03:29:29;;;;;;;;;;;;;;;;;;5047849;28;5102;-66
2023/12/28 03:31:54;;;;;;;;;;;;;;;;;;5041465;28;4857;-65
2023/12/28 03:34:20;;;;;;;;;;;;;;;;;;5048376;28;5223;-66
2023/12/28 03:36:45;;;;;;;;;;;;;;;;;;5049095;28;5000;-66
2023/12/28 03:39:10;;;;;;;;;;;;;;;;;;5049843;28;4475;-65
2023/12/28 03:41:36;;;;;;;;;;;;;;;;;;5049442;28;4922;-66
2023/12/28 03:44:01;;;;;;;;;;;;;;;;;;5043009;28;4736;-66
2023/12/28 03:46:26;;;;;;;;;;;;;;;;;;5044802;28;4955;-63
2023/12/28 03:48:55;;;;;;;;;;;;;;;;;;5050208;28;1145;-67
2023/12/28 03:51:20;;;;;;;;;;;;;;;;;;5049486;28;5174;-67
2023/12/28 03:53:45;;;;;;;;;;;;;;;;;;5049727;28;5028;-66
2023/12/28 03:56:23;;;;;;;;;;;;;;;;;;5048922;28;5030;-66
2023/12/28 03:58:49;;;;;;;;;;;;;;;;;;5042431;28;4546;-67
2023/12/28 04:01:15;;;;;;;;;;;;;;;;;;5040383;28;3668;-67
2023/12/28 04:03:40;;;;;;;;;;;;;;;;;;5045388;28;4933;-67
2023/12/28 04:06:06;;;;;;;;;;;;;;;;;;5040737;28;4663;-66
2023/12/28 04:08:32;;;;;;;;;;;;;;;;;;5043831;28;5103;-67
2023/12/28 04:10:57;;;;;;;;;;;;;;;;;;5046049;28;4505;-67
2023/12/28 04:13:22;;;;;;;;;;;;;;;;;;5047188;28;3443;-67
2023/12/28 04:15:48;;;;;;;;;;;;;;;;;;5048948;28;4562;-67
2023/12/28 04:18:13;;;;;;;;;;;;;;;;;;5045429;28;5040;-66
2023/12/28 04:20:38;;;;;;;;;;;;;;;;;;5042954;28;4631;-66
2023/12/28 04:23:03;;;;;;;;;;;;;;;;;;5045328;28;5268;-67
2023/12/28 04:25:29;;;;;;;;;;;;;;;;;;5043936;28;4722;-67
2023/12/28 04:27:54;;;;;;;;;;;;;;;;;;5039161;28;3256;-66
2023/12/28 04:30:19;;;;;;;;;;;;;;;;;;5039476;28;4943;-65
2023/12/28 04:32:44;;;;;;;;;;;;;;;;;;5044368;28;4948;-65
2023/12/28 04:35:10;;;;;;;;;;;;;;;;;;5043223;28;5232;-66
2023/12/28 04:37:36;;;;;;;;;;;;;;;;;;5047012;28;5071;-66
2023/12/28 04:40:03;;;;;;;;;;;;;;;;;;5048445;28;1225;-66
2023/12/28 04:42:28;;;;;;;;;;;;;;;;;;5042218;28;5048;-67
2023/12/28 04:44:53;;;;;;;;;;;;;;;;;;5045120;28;5114;-67
2023/12/28 04:47:19;;;;;;;;;;;;;;;;;;5038347;28;5609;-65
2023/12/28 04:49:44;;;;;;;;;;;;;;;;;;5042328;28;5047;-66
2023/12/28 04:52:09;;;;;;;;;;;;;;;;;;5043677;28;3212;-67
2023/12/28 04:54:35;;;;;;;;;;;;;;;;;;5046117;28;5071;-67
2023/12/28 04:57:00;;;;;;;;;;;;;;;;;;5044956;28;4539;-67
2023/12/28 04:59:25;;;;;;;;;;;;;;;;;;5043778;28;5098;-67
2023/12/28 05:01:51;;;;;;;;;;;;;;;;;;5046144;28;5104;-67
2023/12/28 05:04:16;;;;;;;;;;;;;;;;;;5036580;28;3338;-67
2023/12/28 05:06:41;;;;;;;;;;;;;;;;;;5046294;28;5054;-67
2023/12/28 05:09:07;;;;;;;;;;;;;;;;;;5042150;28;4996;-66
2023/12/28 05:11:32;;;;;;;;;;;;;;;;;;5044137;28;4462;-67
2023/12/28 05:13:57;;;;;;;;;;;;;;;;;;5041472;28;5054;-67
2023/12/28 05:16:22;;;;;;;;;;;;;;;;;;5046900;28;2193;-67
2023/12/28 05:18:48;;;;;;;;;;;;;;;;;;5045917;28;5042;-66
2023/12/28 05:21:13;;;;;;;;;;;;;;;;;;5037141;28;4504;-67
2023/12/28 05:23:39;;;;;;;;;;;;;;;;;;5045529;28;5095;-67
2023/12/28 05:26:04;;;;;;;;;;;;;;;;;;5039422;28;4518;-67
2023/12/28 05:28:29;;;;;;;;;;;;;;;;;;5044657;28;5139;-66
2023/12/28 05:30:55;;;;;;;;;;;;;;;;;;5038715;28;3326;-66
2023/12/28 05:33:20;;;;;;;;;;;;;;;;;;5034170;28;5044;-65
2023/12/28 05:35:45;;;;;;;;;;;;;;;;;;5044029;28;5087;-65
2023/12/28 05:38:11;;;;;;;;;;;;;;;;;;5038394;28;5057;-66
2023/12/28 05:40:36;;;;;;;;;;;;;;;;;;5041855;28;4562;-65
2023/12/28 05:43:01;;;;;;;;;;;;;;;;;;5039972;28;3455;-65
2023/12/28 05:45:27;;;;;;;;;;;;;;;;;;5041060;28;5760;-65
2023/12/28 05:47:52;;;;;;;;;;;;;;;;;;5038440;28;5310;-65
2023/12/28 05:50:17;;;;;;;;;;;;;;;;;;5036398;28;5133;-66
2023/12/28 05:52:43;;;;;;;;;;;;;;;;;;5041048;28;4509;-65
2023/12/28 05:55:08;;;;;;;;;;;;;;;;;;5035848;28;3369;-68
2023/12/28 05:57:33;;;;;;;;;;;;;;;;;;5039099;28;5038;-67
2023/12/28 05:59:59;;;;;;;;;;;;;;;;;;5037408;28;6046;-67
2023/12/28 06:02:24;;;;;;;;;;;;;;;;;;5032341;28;5116;-67
2023/12/28 06:04:49;;;;;;;;;;;;;;;;;;5037272;28;5158;-66
2023/12/28 06:07:15;;;;;;;;;;;;;;;;;;5039236;28;3349;-67
2023/12/28 06:09:40;;;;;;;;;;;;;;;;;;5047164;28;5071;-67
2023/12/28 06:12:05;;;;;;;;;;;;;;;;;;5045350;28;4679;-67
2023/12/28 06:14:31;;;;;;;;;;;;;;;;;;5045942;28;5021;-67
2023/12/28 06:16:56;;;;;;;;;;;;;;;;;;5042243;28;5046;-67
2023/12/28 06:19:22;;;;;;;;;;;;;;;;;;5044013;28;1292;-67
2023/12/28 06:21:47;;;;;;;;;;;;;;;;;;5036877;28;4999;-67
2023/12/28 06:24:13;;;;;;;;;;;;;;;;;;5046823;28;5009;-68
2023/12/28 06:26:41;;;;;;;;;;;;;;;;;;5033454;28;5131;-68
2023/12/28 06:29:07;;;;;;;;;;;;;;;;;;5038460;28;5300;-67
2023/12/28 06:31:35;;;;;;;;;;;;;;;;;;5046186;28;5320;-68
2023/12/28 06:34:01;;;;;;;;;;;;;;;;;;5047763;28;5304;-68
2023/12/28 06:36:26;;;;;;;;;;;;;;;;;;5045984;28;5165;-68
2023/12/28 06:38:51;;;;;;;;;;;;;;;;;;5045153;28;5156;-68
2023/12/28 06:41:17;;;;;;;;;;;;;;;;;;5046195;28;5156;-68
2023/12/28 06:43:42;;;;;;;;;;;;;;;;;;5045577;28;5103;-68
2023/12/28 06:46:07;;;;;;;;;;;;;;;;;;5047175;28;1309;-67
2023/12/28 06:48:33;;;;;;;;;;;;;;;;;;5045705;28;5088;-67
2023/12/28 06:50:58;;;;;;;;;;;;;;;;;;5044727;28;4954;-67
2023/12/28 06:53:23;;;;;;;;;;;;;;;;;;5046094;28;4564;-67
2023/12/28 06:55:48;;;;;;;;;;;;;;;;;;5045485;28;4696;-67
2023/12/28 06:58:14;;;;;;;;;;;;;;;;;;5025809;28;3404;-67
2023/12/28 07:00:41;;;;;;;;;;;;;;;;;;5040440;28;4520;-68
2023/12/28 07:03:06;;;;;;;;;;;;;;;;;;5036533;28;4667;-67
2023/12/28 07:05:31;;;;;;;;;;;;;;;;;;5045788;28;5096;-68
2023/12/28 07:07:56;;;;;;;;;;;;;;;;;;5044737;28;4728;-68
2023/12/28 07:10:22;;;;;;;;;;;;;;;;;;5044050;28;1500;-68
2023/12/28 07:12:47;;;;;;;;;;;;;;;;;;5044628;28;4991;-67
2023/12/28 07:15:14;;;;;;;;;;;;;;;;;;5045667;28;4660;-67
2023/12/28 07:17:39;;;;;;;;;;;;;;;;;;5044266;28;4698;-68
2023/12/28 07:20:05;;;;;;;;;;;;;;;;;;5046828;28;4511;-68
2023/12/28 07:22:30;;;;;;;;;;;;;;;;;;5045003;28;4627;-67
2023/12/28 07:24:55;;;;;;;;;;;;;;;;;;5038293;28;1149;-66
2023/12/28 07:27:21;;;;;;;;;;;;;;;;;;5027593;28;5187;-67
2023/12/28 07:29:46;;;;;;;;;;;;;;;;;;5023807;28;5040;-67
2023/12/28 07:32:11;;;;;;;;;;;;;;;;;;5025964;28;4897;-67
2023/12/28 07:34:37;;;;;;;;;;;;;;;;;;5024606;28;5241;-67
2023/12/28 07:37:03;;;;;;;;;;;;;;;;;;5026866;28;1090;-66
2023/12/28 07:39:28;;;;;;;;;;;;;;;;;;5019820;28;4571;-66
2023/12/28 07:41:53;;;;;;;;;;;;;;;;;;5025847;28;4478;-67
2023/12/28 07:44:18;;;;;;;;;;;;;;;;;;5024634;28;5196;-67
2023/12/28 07:46:44;;;;;;;;;;;;;;;;;;5025816;28;5035;-66
2023/12/28 07:49:09;;;;;;;;;;;;;;;;;;5025965;28;2059;-67
2023/12/28 07:51:34;;;;;;;;;;;;;;;;;;5026027;28;5313;-67
2023/12/28 07:54:00;;;;;;;;;;;;;;;;;;5022729;28;5022;-67
2023/12/28 07:56:25;;;;;;;;;;;;;;;;;;5023700;28;4743;-68
2023/12/28 07:58:50;;;;;;;;;;;;;;;;;;5024124;28;5197;-67
2023/12/28 08:01:15;;;;;;;;;;;;;;;;;;5026257;28;1204;-68
2023/12/28 08:03:41;;;;;;;;;;;;;;;;;;5025921;28;4957;-68
2023/12/28 08:06:06;;;;;;;;;;;;;;;;;;5022599;28;5329;-67
2023/12/28 08:08:31;;;;;;;;;;;;;;;;;;5024802;28;5026;-67
2023/12/28 08:10:57;;;;;;;;;;;;;;;;;;5028010;28;5013;-67
2023/12/28 08:13:22;;;;;;;;;;;;;;;;;;5027132;28;2261;-67
2023/12/28 08:15:47;;;;;;;;;;;;;;;;;;5026530;28;4604;-68
2023/12/28 08:18:13;;;;;;;;;;;;;;;;;;5028250;28;5017;-67
2023/12/28 08:20:38;;;;;;;;;;;;;;;;;;5017523;28;5031;-67
2023/12/28 08:23:03;;;;;;;;;;;;;;;;;;5027483;28;4721;-68
2023/12/28 08:25:28;;;;;;;;;;;;;;;;;;5028251;28;4886;-67
2023/12/28 08:27:54;;;;;;;;;;;;;;;;;;5015590;28;3486;-67
2023/12/28 08:30:19;;;;;;;;;;;;;;;;;;5028785;28;4933;-68
2023/12/28 08:32:45;;;;;;;;;;;;;;;;;;5028664;28;4922;-67
2023/12/28 08:35:10;;;;;;;;;;;;;;;;;;5028149;28;5069;-68
2023/12/28 08:37:35;;;;;;;;;;;;;;;;;;5027234;28;5082;-67
2023/12/28 08:40:00;;;;;;;;;;;;;;;;;;5028966;28;1337;-68
2023/12/28 08:42:26;;;;;;;;;;;;;;;;;;5015381;28;4573;-67
2023/12/28 08:44:51;;;;;;;;;;;;;;;;;;5027024;28;5105;-67
2023/12/28 08:47:17;;;;;;;;;;;;;;;;;;5026755;28;5055;-67
2023/12/28 08:49:42;;;;;;;;;;;;;;;;;;5028604;28;5176;-67
2023/12/28 08:52:08;;;;;;;;;;;;;;;;;;5028318;28;1135;-68
2023/12/28 08:54:33;;;;;;;;;;;;;;;;;;5027101;28;4996;-68
2023/12/28 08:56:58;;;;;;;;;;;;;;;;;;5006934;28;5112;-67
2023/12/28 08:59:24;;;;;;;;;;;;;;;;;;5027340;28;5092;-67
2023/12/28 09:01:51;;;;;;;;;;;;;;;;;;5027140;28;4968;-67
2023/12/28 09:04:17;;;;;;;;;;;;;;;;;;5006250;28;3495;-67
2023/12/28 09:06:42;;;;;;;;;;;;;;;;;;5025012;28;4508;-67
2023/12/28 09:09:08;;;;;;;;;;;;;;;;;;5004490;28;4749;-67
2023/12/28 09:11:33;;;;;;;;;;;;;;;;;;5027764;28;4762;-68
2023/12/28 09:13:59;;;;;;;;;;;;;;;;;;5026206;28;4692;-68
2023/12/28 09:16:24;;;;;;;;;;;;;;;;;;5025464;28;1288;-68
2023/12/28 09:18:50;;;;;;;;;;;;;;;;;;5021096;28;5104;-68
2023/12/28 09:21:15;;;;;;;;;;;;;;;;;;5027330;28;5238;-67
2023/12/28 09:23:41;;;;;;;;;;;;;;;;;;5022842;28;5065;-67
2023/12/28 09:26:06;;;;;;;;;;;;;;;;;;5012036;28;5151;-66
2023/12/28 09:28:32;;;;;;;;;;;;;;;;;;5027251;28;5001;-67
2023/12/28 09:30:57;;;;;;;;;;;;;;;;;;5007702;28;1332;-68
2023/12/28 09:33:22;;;;;;;;;;;;;;;;;;5023819;28;4695;-67
2023/12/28 09:35:48;;;;;;;;;;;;;;;;;;5025250;28;5275;-68
2023/12/28 09:38:13;;;;;;;;;;;;;;;;;;5021726;28;5137;-68
2023/12/28 09:40:43;;;;;;;;;;;;;;;;;;5025184;28;4876;-67
2023/12/28 09:43:26;;;;;;;;;;;;;;;;;;5025618;28;3370;-67
2023/12/28 09:45:52;;;;;;;;;;;;;;;;;;5020643;28;5008;-68
2023/12/28 09:48:17;;;;;;;;;;;;;;;;;;5026291;28;4721;-67
2023/12/28 09:50:50;;;;;;;;;;;;;;;;;;5025182;28;5123;-67
2023/12/28 09:53:15;;;;;;;;;;;;;;;;;;5024427;28;4577;-67
2023/12/28 09:55:41;;;;;;;;;;;;;;;;;;5027008;28;5085;-67
2023/12/28 09:58:06;;;;;;;;;;;;;;;;;;5008288;28;3393;-67
2023/12/28 10:00:32;;;;;;;;;;;;;;;;;;5001209;28;4861;-67
2023/12/28 10:02:57;;;;;;;;;;;;;;;;;;5025351;28;5326;-68
2023/12/28 10:05:22;;;;;;;;;;;;;;;;;;5024975;28;4858;-67
2023/12/28 10:07:48;;;;;;;;;;;;;;;;;;5025276;28;4938;-67
2023/12/28 10:10:14;;;;;;;;;;;;;;;;;;5011716;28;1489;-68
2023/12/28 10:12:39;;;;;;;;;;;;;;;;;;5026386;28;5119;-67
2023/12/28 10:15:05;;;;;;;;;;;;;;;;;;5016090;28;4585;-68
2023/12/28 10:17:32;;;;;;;;;;;;;;;;;;5021370;28;5135;-68
2023/12/28 10:20:03;;;;;;;;;;;;;;;;;;5024750;28;4650;-67
2023/12/28 10:22:29;;;;;;;;;;;;;;;;;;5025676;28;4912;-67
2023/12/28 10:24:54;;;;;;;;;;;;;;;;;;5027090;28;1180;-68
2023/12/28 10:27:19;;;;;;;;;;;;;;;;;;5003288;28;5174;-68
2023/12/28 10:29:44;;;;;;;;;;;;;;;;;;5040544;28;4677;-67
2023/12/28 10:32:10;;;;;;;;;;;;;;;;;;5046937;28;5039;-67
2023/12/28 10:34:35;;;;;;;;;;;;;;;;;;5044008;28;5227;-67
2023/12/28 10:37:01;;;;;;;;;;;;;;;;;;5047307;28;1093;-67
2023/12/28 10:39:27;;;;;;;;;;;;;;;;;;5008150;28;4622;-67
2023/12/28 10:41:53;;;;;;;;;;;;;;;;;;5044978;28;5204;-67
2023/12/28 10:44:20;;;;;;;;;;;;;;;;;;5040572;28;5157;-68
2023/12/28 10:46:45;;;;;;;;;;;;;;;;;;5046382;28;5043;-68
2023/12/28 10:49:15;;;;;;;;;;;;;;;;;;5017457;28;3469;-66
2023/12/28 10:51:43;;;;;;;;;;;;;;;;;;5041227;28;5062;-67
2023/12/28 10:54:26;;;;;;;;;;;;;;;;;;5044275;28;5111;-66
2023/12/28 10:57:07;;;;;;;;;;;;;;;;;;5021236;28;4542;-67
2023/12/28 10:59:32;;;;;;;;;;;;;;;;;;5044272;28;4816;-68
2023/12/28 11:01:58;;;;;;;;;;;;;;;;;;5044797;28;4529;-67
2023/12/28 11:04:27;;;;;;;;;;;;;;;;;;5045608;28;3640;-67
2023/12/28 11:06:52;;;;;;;;;;;;;;;;;;5025300;28;5278;-68
2023/12/28 11:09:17;;;;;;;;;;;;;;;;;;5044819;28;5111;-68
2023/12/28 11:11:46;;;;;;;;;;;;;;;;;;5026970;28;5161;-68
2023/12/28 11:14:11;;;;;;;;;;;;;;;;;;5038454;28;4558;-68
2023/12/28 11:16:37;;;;;;;;;;;;;;;;;;5026181;28;5086;-68
2023/12/28 11:19:02;;;;;;;;;;;;;;;;;;5025040;28;1184;-68
2023/12/28 11:21:28;;;;;;;;;;;;;;;;;;5044560;28;4438;-68
2023/12/28 11:23:53;;;;;;;;;;;;;;;;;;5046117;28;4932;-67
2023/12/28 11:26:20;;;;;;;;;;;;;;;;;;5025414;28;4880;-68
2023/12/28 11:28:45;;;;;;;;;;;;;;;;;;5044251;28;5267;-67
2023/12/28 11:31:13;;;;;;;;;;;;;;;;;;5046039;28;1081;-66
2023/12/28 11:33:45;;;;;;;;;;;;;;;;;;5028175;28;5955;-67
2023/12/28 11:36:10;;;;;;;;;;;;;;;;;;5041686;28;4770;-67
2023/12/28 11:38:36;;;;;;;;;;;;;;;;;;5036284;28;4909;-68
2023/12/28 11:41:03;;;;;;;;;;;;;;;;;;5025764;28;5083;-67
2023/12/28 11:43:33;;;;;;;;;;;;;;;;;;5025962;28;4527;-67
2023/12/28 11:45:58;;;;;;;;;;;;;;;;;;5047855;28;3499;-68
2023/12/28 11:48:26;;;;;;;;;;;;;;;;;;5048797;28;4656;-68
2023/12/28 11:50:58;;;;;;;;;;;;;;;;;;5047097;28;4747;-68
2023/12/28 11:53:24;;;;;;;;;;;;;;;;;;5049212;28;5177;-68
2023/12/28 11:55:49;;;;;;;;;;;;;;;;;;5045885;28;5136;-68
2023/12/28 11:58:15;;;;;;;;;;;;;;;;;;5046513;28;3311;-67
2023/12/28 12:00:41;;;;;;;;;;;;;;;;;;5049117;28;5113;-67
2023/12/28 12:03:06;;;;;;;;;;;;;;;;;;5040614;28;6516;-67
2023/12/28 12:05:31;;;;;;;;;;;;;;;;;;5046150;28;4740;-67
2023/12/28 12:07:57;;;;;;;;;;;;;;;;;;5048209;28;5075;-68
2023/12/28 12:10:22;;;;;;;;;;;;;;;;;;5044257;28;1476;-67
2023/12/28 12:12:47;;;;;;;;;;;;;;;;;;5048091;28;5024;-68
2023/12/28 12:15:13;;;;;;;;;;;;;;;;;;5045777;28;4729;-68
2023/12/28 12:17:38;;;;;;;;;;;;;;;;;;5029530;28;6139;-68
2023/12/28 12:20:04;;;;;;;;;;;;;;;;;;5030370;28;5143;-68
2023/12/28 12:22:29;;;;;;;;;;;;;;;;;;5044628;28;5122;-67
2023/12/28 12:24:54;;;;;;;;;;;;;;;;;;5047294;28;1304;-68
2023/12/28 12:27:20;;;;;;;;;;;;;;;;;;5053509;28;5065;-67
2023/12/28 12:29:45;;;;;;;;;;;;;;;;;;5047042;28;5120;-68
2023/12/28 12:32:10;;;;;;;;;;;;;;;;;;5048044;28;6047;-67
2023/12/28 12:34:35;;;;;;;;;;;;;;;;;;5047748;28;5145;-67
2023/12/28 12:37:01;;;;;;;;;;;;;;;;;;5048826;28;1113;-68
2023/12/28 12:39:26;;;;;;;;;;;;;;;;;;5048062;28;5118;-68
2023/12/28 12:41:51;;;;;;;;;;;;;;;;;;5048075;28;5075;-69
2023/12/28 12:44:19;;;;;;;;;;;;;;;;;;5021545;28;5091;-68
2023/12/28 12:46:44;;;;;;;;;;;;;;;;;;5048340;28;5656;-68
2023/12/28 12:49:09;;;;;;;;;;;;;;;;;;5048844;28;1136;-68
2023/12/28 12:51:35;;;;;;;;;;;;;;;;;;5042424;28;4494;-68
2023/12/28 12:54:00;;;;;;;;;;;;;;;;;;5043561;28;5153;-68
2023/12/28 12:56:26;;;;;;;;;;;;;;;;;;5025230;28;4693;-68
2023/12/28 12:58:51;;;;;;;;;;;;;;;;;;5046410;28;5244;-68
2023/12/28 13:01:16;;;;;;;;;;;;;;;;;;5047527;28;3399;-68
2023/12/28 13:03:42;;;;;;;;;;;;;;;;;;5046534;28;4891;-68
2023/12/28 13:06:07;;;;;;;;;;;;;;;;;;5047620;28;4551;-68
2023/12/28 13:08:33;;;;;;;;;;;;;;;;;;5039893;28;4693;-67
2023/12/28 13:10:58;;;;;;;;;;;;;;;;;;5044228;28;5031;-68
2023/12/28 13:13:23;;;;;;;;;;;;;;;;;;5045399;28;3393;-68
2023/12/28 13:15:49;;;;;;;;;;;;;;;;;;5045446;28;4452;-68
2023/12/28 13:18:15;;;;;;;;;;;;;;;;;;5042176;28;5089;-68
2023/12/28 13:20:40;;;;;;;;;;;;;;;;;;5045929;28;5010;-68
2023/12/28 13:23:05;;;;;;;;;;;;;;;;;;5045588;28;4689;-68
2023/12/28 13:25:31;;;;;;;;;;;;;;;;;;5044412;28;5141;-68
2023/12/28 13:27:56;;;;;;;;;;;;;;;;;;5026499;28;2277;-68
2023/12/28 13:30:21;;;;;;;;;;;;;;;;;;5026172;28;4493;-68
2023/12/28 13:32:47;;;;;;;;;;;;;;;;;;5027389;28;5842;-67
2023/12/28 13:35:12;;;;;;;;;;;;;;;;;;5022576;28;5097;-68
2023/12/28 13:37:37;;;;;;;;;;;;;;;;;;5025775;28;4501;-67
2023/12/28 13:40:04;;;;;;;;;;;;;;;;;;5023496;28;2572;-68
2023/12/28 13:42:30;;;;;;;;;;;;;;;;;;5018654;28;4662;-67
2023/12/28 13:44:55;;;;;;;;;;;;;;;;;;5024785;28;5181;-68
2023/12/28 13:47:20;;;;;;;;;;;;;;;;;;5026946;28;5434;-67
2023/12/28 13:49:45;;;;;;;;;;;;;;;;;;5027320;28;4556;-68
2023/12/28 13:52:11;;;;;;;;;;;;;;;;;;5026387;28;1169;-67
2023/12/28 13:54:36;;;;;;;;;;;;;;;;;;5022054;28;5044;-67
2023/12/28 13:57:01;;;;;;;;;;;;;;;;;;5027269;28;5087;-67
2023/12/28 13:59:26;;;;;;;;;;;;;;;;;;5023652;28;4562;-67
2023/12/28 14:01:52;;;;;;;;;;;;;;;;;;5021469;28;5138;-67
2023/12/28 14:04:17;;;;;;;;;;;;;;;;;;5026308;28;1493;-68
2023/12/28 14:06:42;;;;;;;;;;;;;;;;;;5026753;28;5018;-68
2023/12/28 14:09:08;;;;;;;;;;;;;;;;;;5024880;28;4993;-67
2023/12/28 14:11:33;;;;;;;;;;;;;;;;;;5026341;28;5052;-68
2023/12/28 14:13:58;;;;;;;;;;;;;;;;;;5022334;28;4936;-68
2023/12/28 14:16:24;;;;;;;;;;;;;;;;;;5018209;28;3549;-68
2023/12/28 14:18:49;;;;;;;;;;;;;;;;;;5014640;28;5083;-67
2023/12/28 14:21:15;;;;;;;;;;;;;;;;;;5017228;28;5208;-68
2023/12/28 14:23:41;;;;;;;;;;;;;;;;;;5015983;28;4550;-67
2023/12/28 14:26:10;;;;;;;;;;;;;;;;;;5020669;28;5075;-67
2023/12/28 14:28:36;;;;;;;;;;;;;;;;;;5003828;28;4688;-68
2023/12/28 14:31:02;;;;;;;;;;;;;;;;;;5019132;28;3634;-67
2023/12/28 14:33:27;;;;;;;;;;;;;;;;;;5018654;28;5047;-70
2023/12/28 14:35:52;;;;;;;;;;;;;;;;;;5016302;28;5172;-68
2023/12/28 14:38:18;;;;;;;;;;;;;;;;;;4996539;28;5111;-68
2023/12/28 14:40:43;;;;;;;;;;;;;;;;;;5020506;28;4600;-65
2023/12/28 14:43:09;;;;;;;;;;;;;;;;;;5019837;28;3535;-68
2023/12/28 14:45:34;;;;;;;;;;;;;;;;;;5016941;28;5210;-67
2023/12/28 14:47:59;;;;;;;;;;;;;;;;;;5020515;28;4643;-65
2023/12/28 14:50:25;;;;;;;;;;;;;;;;;;5016577;28;5333;-65
2023/12/28 14:52:50;;;;;;;;;;;;;;;;;;5017763;28;5119;-65
2023/12/28 14:55:15;;;;;;;;;;;;;;;;;;5021953;28;3602;-65
2023/12/28 14:57:40;;;;;;;;;;;;;;;;;;5019148;28;4513;-64
2023/12/28 15:00:06;;;;;;;;;;;;;;;;;;5017357;28;4687;-64
2023/12/28 15:02:31;;;;;;;;;;;;;;;;;;5016720;28;4964;-64
2023/12/28 15:04:59;;;;;;;;;;;;;;;;;;5018327;28;5105;-64
2023/12/28 15:07:25;;;;;;;;;;;;;;;;;;5015443;28;3480;-65
2023/12/28 15:09:53;;;;;;;;;;;;;;;;;;5013046;28;4890;-65
2023/12/28 15:12:18;;;;;;;;;;;;;;;;;;5017107;28;5198;-65
2023/12/28 15:14:43;;;;;;;;;;;;;;;;;;5018772;28;4534;-66
2023/12/28 15:17:10;;;;;;;;;;;;;;;;;;5002659;28;4751;-66
2023/12/28 15:19:36;;;;;;;;;;;;;;;;;;4990459;28;5154;-64
2023/12/28 15:22:01;;;;;;;;;;;;;;;;;;5025633;28;3839;-65
2023/12/28 15:24:26;;;;;;;;;;;;;;;;;;5021447;28;4965;-66
2023/12/28 15:26:52;;;;;;;;;;;;;;;;;;5016328;28;4717;-65
2023/12/28 15:29:17;;;;;;;;;;;;;;;;;;5018535;28;4570;-65
2023/12/28 15:31:43;;;;;;;;;;;;;;;;;;5020659;28;4808;-66
2023/12/28 15:34:08;;;;;;;;;;;;;;;;;;5019029;28;5041;-64
2023/12/28 15:36:33;;;;;;;;;;;;;;;;;;5023325;28;4725;-65
2023/12/28 15:38:59;;;;;;;;;;;;;;;;;;5021414;28;5107;-64
2023/12/28 15:41:24;;;;;;;;;;;;;;;;;;5019204;28;4770;-65
2023/12/28 15:43:50;;;;;;;;;;;;;;;;;;5024663;28;4520;-66
2023/12/28 15:46:15;;;;;;;;;;;;;;;;;;5027021;28;1440;-64
2023/12/28 15:48:40;;;;;;;;;;;;;;;;;;5002054;28;4616;-64
2023/12/28 15:51:07;;;;;;;;;;;;;;;;;;5020121;28;5085;-64
2023/12/28 15:53:32;;;;;;;;;;;;;;;;;;5022161;28;4870;-66
2023/12/28 15:55:58;;;;;;;;;;;;;;;;;;5028494;28;5188;-64
2023/12/28 15:58:24;;;;;;;;;;;;;;;;;;5019276;28;3600;-64
2023/12/28 16:00:49;;;;;;;;;;;;;;;;;;5028524;28;5196;-64
2023/12/28 16:03:15;;;;;;;;;;;;;;;;;;5018215;28;5622;-64
2023/12/28 16:05:40;;;;;;;;;;;;;;;;;;5019810;28;4579;-66
2023/12/28 16:08:05;;;;;;;;;;;;;;;;;;5021469;28;4963;-63
2023/12/28 16:10:31;;;;;;;;;;;;;;;;;;5018419;28;4912;-64
2023/12/28 16:12:56;;;;;;;;;;;;;;;;;;5021322;28;3514;-64
2023/12/28 16:15:22;;;;;;;;;;;;;;;;;;5021088;28;5060;-64
2023/12/28 16:17:47;;;;;;;;;;;;;;;;;;5015411;28;4865;-64
2023/12/28 16:20:13;;;;;;;;;;;;;;;;;;5006018;28;5140;-64
2023/12/28 16:22:39;;;;;;;;;;;;;;;;;;5025240;28;4670;-63
2023/12/28 16:25:04;;;;;;;;;;;;;;;;;;5028048;28;3352;-64
2023/12/28 16:27:29;;;;;;;;;;;;;;;;;;5024892;28;4476;-64
2023/12/28 16:29:55;;;;;;;;;;;;;;;;;;5028945;28;5081;-64
2023/12/28 16:32:20;;;;;;;;;;;;;;;;;;4997543;28;4588;-63
2023/12/28 16:34:46;;;;;;;;;;;;;;;;;;5019275;28;5155;-63
2023/12/28 16:37:11;;;;;;;;;;;;;;;;;;5028047;28;3052;-63
2023/12/28 16:39:36;;;;;;;;;;;;;;;;;;5026838;28;4761;-63
2023/12/28 16:42:02;;;;;;;;;;;;;;;;;;5023677;28;4547;-63
2023/12/28 16:44:27;;;;;;;;;;;;;;;;;;5026797;28;4592;-64
2023/12/28 16:46:52;;;;;;;;;;;;;;;;;;5006964;28;4983;-64
2023/12/28 16:49:18;;;;;;;;;;;;;;;;;;5023951;28;3207;-63
2023/12/28 16:51:43;;;;;;;;;;;;;;;;;;5003131;28;4681;-62